createdAt,value
2023-04-28T00:02:27.359Z,7.97
2023-04-28T00:04:55.548Z,10.43
2023-04-28T00:07:23.363Z,8.67
2023-04-28T00:09:51.113Z,10.40
2023-04-28T00:12:18.880Z,10.27
2023-04-28T00:14:47.946Z,7.93
2023-04-28T00:17:15.981Z,9.40
2023-04-28T00:19:43.861Z,11.03
2023-04-28T00:22:11.610Z,9.53
2023-04-28T00:24:39.458Z,10.50
2023-04-28T00:27:07.510Z,10.40
2023-04-28T00:29:35.259Z,9.70
2023-04-28T00:32:04.508Z,10.70
2023-04-28T00:34:34.003Z,9.67
2023-04-28T00:37:02.184Z,10.37
2023-04-28T00:39:29.961Z,11.07
2023-04-28T00:41:57.819Z,10.77
2023-04-28T00:44:25.537Z,10.47
2023-04-28T00:46:53.234Z,10.67
2023-04-28T00:49:22.268Z,9.20
2023-04-28T00:51:49.975Z,9.77
2023-04-28T00:54:18.267Z,10.83
2023-04-28T00:56:46.448Z,10.80
2023-04-28T00:59:14.234Z,12.10
2023-04-28T01:01:42.176Z,11.17
2023-04-28T01:04:10.416Z,11.40
2023-04-28T01:06:39.610Z,11.97
2023-04-28T01:09:07.543Z,9.90
2023-04-28T01:11:35.296Z,11.57
2023-04-28T01:14:03.675Z,11.83
2023-04-28T01:16:32.839Z,11.30
2023-04-28T01:19:01.480Z,8.97
2023-04-28T01:21:30.443Z,11.37
2023-04-28T01:23:59.563Z,12.23
2023-04-28T01:26:27.334Z,12.20
2023-04-28T01:28:55.054Z,11.37
2023-04-28T01:31:22.774Z,12.27
2023-04-28T01:33:50.550Z,11.00
2023-04-28T01:36:18.195Z,11.20
2023-04-28T01:38:45.953Z,10.83
2023-04-28T01:41:15.027Z,10.87
2023-04-28T01:43:43.828Z,10.73
2023-04-28T01:46:11.573Z,11.87
2023-04-28T01:48:39.334Z,11.37
2023-04-28T01:51:07.046Z,10.70
2023-04-28T01:53:34.775Z,11.03
2023-04-28T01:56:02.536Z,12.10
2023-04-28T01:58:31.624Z,10.60
2023-04-28T02:00:59.798Z,10.33
2023-04-28T02:03:28.146Z,11.10
2023-04-28T02:05:56.091Z,10.17
2023-04-28T02:08:23.796Z,9.70
2023-04-28T02:10:51.669Z,11.60
2023-04-28T02:13:19.354Z,10.80
2023-04-28T02:15:48.476Z,11.13
2023-04-28T02:18:16.206Z,10.53
2023-04-28T02:20:43.869Z,10.83
2023-04-28T02:23:11.575Z,11.47
2023-04-28T02:25:39.230Z,9.73
2023-04-28T02:28:07.208Z,9.90
2023-04-28T02:30:34.910Z,11.10
2023-04-28T02:33:04.007Z,12.40
2023-04-28T02:35:31.852Z,11.80
2023-04-28T02:37:59.575Z,11.33
2023-04-28T02:40:27.297Z,10.70
2023-04-28T02:42:54.969Z,10.37
2023-04-28T02:45:22.624Z,11.47
2023-04-28T02:47:50.862Z,11.33
2023-04-28T02:50:20.515Z,11.17
2023-04-28T02:52:49.164Z,11.63
2023-04-28T02:55:23.976Z,11.90
2023-04-28T02:57:51.866Z,11.90
2023-04-28T03:00:20.111Z,11.90
2023-04-28T03:02:47.795Z,12.23
2023-04-28T03:05:15.917Z,11.40
2023-04-28T03:07:44.901Z,10.63
2023-04-28T03:10:12.663Z,10.93
2023-04-28T03:12:40.371Z,10.47
2023-04-28T03:15:09.165Z,11.00
2023-04-28T03:17:39.074Z,10.67
2023-04-28T03:20:07.998Z,11.50
2023-04-28T03:22:36.010Z,11.33
2023-04-28T03:25:05.438Z,10.93
2023-04-28T03:27:33.114Z,11.37
2023-04-28T03:30:00.759Z,11.13
2023-04-28T03:32:28.499Z,11.20
2023-04-28T03:34:56.238Z,10.60
2023-04-28T03:37:23.949Z,11.33
2023-04-28T03:39:51.651Z,10.43
2023-04-28T03:42:20.687Z,11.00
2023-04-28T03:44:48.408Z,10.87
2023-04-28T03:47:16.260Z,11.20
2023-04-28T03:49:44.016Z,11.63
2023-04-28T03:52:11.713Z,10.50
2023-04-28T03:54:39.418Z,10.73
2023-04-28T03:57:07.066Z,10.57
2023-04-28T03:59:36.150Z,10.53
2023-04-28T04:02:03.837Z,10.03
2023-04-28T04:04:32.068Z,10.50
2023-04-28T04:07:00.102Z,9.83
2023-04-28T04:09:27.844Z,10.07
2023-04-28T04:11:55.499Z,10.57
2023-04-28T04:14:23.210Z,11.07
2023-04-28T04:16:52.214Z,10.23
2023-04-28T04:19:19.970Z,10.43
2023-04-28T04:21:47.975Z,9.73
2023-04-28T04:24:15.972Z,10.83
2023-04-28T04:26:43.891Z,10.07
2023-04-28T04:29:11.636Z,9.73
2023-04-28T04:31:39.638Z,9.53
2023-04-28T04:34:08.834Z,10.40
2023-04-28T04:36:36.560Z,10.33
2023-04-28T04:39:04.304Z,10.73
2023-04-28T04:41:32.032Z,10.57
2023-04-28T04:43:59.729Z,9.47
2023-04-28T04:46:27.513Z,10.00
2023-04-28T04:48:55.170Z,9.90
2023-04-28T04:51:24.274Z,9.60
2023-04-28T04:53:51.929Z,9.40
2023-04-28T04:56:19.662Z,8.77
2023-04-28T04:58:47.921Z,10.10
2023-04-28T05:01:15.613Z,9.27
2023-04-28T05:03:43.455Z,9.77
2023-04-28T05:06:11.500Z,9.33
2023-04-28T05:08:40.667Z,9.23
2023-04-28T05:11:08.469Z,8.97
2023-04-28T05:13:36.277Z,7.80
2023-04-28T05:16:04.207Z,8.67
2023-04-28T05:18:32.214Z,8.23
2023-04-28T05:20:59.956Z,7.37
2023-04-28T05:23:27.596Z,7.87
2023-04-28T05:25:56.642Z,8.43
2023-04-28T05:28:24.354Z,6.93
2023-04-28T05:30:52.101Z,6.80
2023-04-28T05:33:19.889Z,6.80
2023-04-28T05:35:47.593Z,6.67
2023-04-28T05:38:15.239Z,7.10
2023-04-28T05:40:42.948Z,6.63
2023-04-28T05:43:12.223Z,6.53
2023-04-28T05:45:39.942Z,6.20
2023-04-28T05:48:07.807Z,6.63
2023-04-28T05:50:37.719Z,6.40
2023-04-28T05:53:07.550Z,6.50
2023-04-28T05:55:36.349Z,6.80
2023-04-28T05:58:04.090Z,6.20
2023-04-28T06:00:34.210Z,6.57
2023-04-28T06:03:02.485Z,5.80
2023-04-28T06:05:30.658Z,6.63
2023-04-28T06:07:58.760Z,5.37
2023-04-28T06:10:27.287Z,5.33
2023-04-28T06:12:55.064Z,6.27
2023-04-28T06:15:22.810Z,5.70
2023-04-28T06:17:52.643Z,5.07
2023-04-28T06:20:20.681Z,5.40
2023-04-28T06:22:48.598Z,5.30
2023-04-28T06:25:16.567Z,5.27
2023-04-28T06:27:44.270Z,5.30
2023-04-28T06:30:18.623Z,5.83
2023-04-28T06:32:46.407Z,5.80
2023-04-28T06:35:16.391Z,5.10
2023-04-28T06:37:44.284Z,4.97
2023-04-28T06:40:12.749Z,5.43
2023-04-28T06:42:40.593Z,6.00
2023-04-28T06:45:09.647Z,5.33
2023-04-28T06:47:37.429Z,5.90
2023-04-28T06:50:05.512Z,5.97
2023-04-28T06:52:39.273Z,5.30
2023-04-28T06:55:09.432Z,5.63
2023-04-28T06:57:37.866Z,5.37
2023-04-28T07:00:06.902Z,5.37
2023-04-28T07:02:35.179Z,5.73
2023-04-28T07:05:03.442Z,5.73
2023-04-28T07:07:31.158Z,5.90
2023-04-28T07:10:01.059Z,5.80
2023-04-28T07:12:28.886Z,5.97
2023-04-28T07:14:56.779Z,6.10
2023-04-28T07:17:24.575Z,6.00
2023-04-28T07:19:52.409Z,5.87
2023-04-28T07:22:20.120Z,5.67
2023-04-28T07:24:47.849Z,6.47
2023-04-28T07:27:17.156Z,6.57
2023-04-28T07:29:45.027Z,6.33
2023-04-28T07:32:12.743Z,6.27
2023-04-28T07:34:40.693Z,6.70
2023-04-28T07:37:08.461Z,5.87
2023-04-28T07:39:36.676Z,7.00
2023-04-28T07:42:04.926Z,6.13
2023-04-28T07:44:34.029Z,6.23
2023-04-28T07:47:01.968Z,6.07
2023-04-28T07:49:29.863Z,6.00
2023-04-28T07:51:57.652Z,5.93
2023-04-28T07:54:25.920Z,6.33
2023-04-28T07:56:53.849Z,6.67
2023-04-28T07:59:21.681Z,6.63
2023-04-28T08:01:51.270Z,6.23
2023-04-28T08:04:19.212Z,6.13
2023-04-28T08:06:47.247Z,6.73
2023-04-28T08:09:14.959Z,6.30
2023-04-28T08:11:42.658Z,7.00
2023-04-28T08:14:10.418Z,5.87
2023-04-28T08:16:40.502Z,7.27
2023-04-28T08:19:09.928Z,7.07
2023-04-28T08:21:37.660Z,7.10
2023-04-28T08:24:05.614Z,7.80
2023-04-28T08:26:33.457Z,7.17
2023-04-28T08:29:01.171Z,7.70
2023-04-28T08:31:28.954Z,7.23
2023-04-28T08:33:56.667Z,7.63
2023-04-28T08:36:31.673Z,7.27
2023-04-28T08:39:00.966Z,7.73
2023-04-28T08:41:29.924Z,8.23
2023-04-28T08:43:57.648Z,7.40
2023-04-28T08:46:28.779Z,7.67
2023-04-28T08:49:01.313Z,8.40
2023-04-28T08:51:35.232Z,7.73
2023-04-28T08:54:24.807Z,7.73
2023-04-28T08:56:53.245Z,8.30
2023-04-28T08:59:21.120Z,7.97
2023-04-28T09:01:49.827Z,7.87
2023-04-28T09:04:18.593Z,7.93
2023-04-28T09:06:48.303Z,8.20
2023-04-28T09:09:22.947Z,7.80
2023-04-28T09:11:58.578Z,8.27
2023-04-28T09:14:26.900Z,8.87
2023-04-28T09:16:54.807Z,8.13
2023-04-28T09:19:22.751Z,8.03
2023-04-28T09:21:54.152Z,8.57
2023-04-28T09:24:29.974Z,9.17
2023-04-28T09:26:57.732Z,8.67
2023-04-28T09:29:25.700Z,8.90
2023-04-28T09:31:54.368Z,8.13
2023-04-28T09:34:22.296Z,9.30
2023-04-28T09:36:50.090Z,9.07
2023-04-28T09:39:31.612Z,7.77
2023-04-28T09:42:03.413Z,8.63
2023-04-28T09:44:31.249Z,8.30
2023-04-28T09:46:58.971Z,9.33
2023-04-28T09:49:26.699Z,8.80
2023-04-28T09:51:54.483Z,8.93
2023-04-28T09:54:23.039Z,8.90
2023-04-28T09:56:53.243Z,9.07
2023-04-28T09:59:21.595Z,9.50
2023-04-28T10:01:50.592Z,8.73
2023-04-28T10:04:18.730Z,9.00
2023-04-28T10:06:46.728Z,9.77
2023-04-28T10:09:14.807Z,8.73
2023-04-28T10:11:42.551Z,10.17
2023-04-28T10:14:12.409Z,8.70
2023-04-28T10:16:40.107Z,9.50
2023-04-28T10:19:08.993Z,8.43
2023-04-28T10:21:41.780Z,7.67
2023-04-28T10:24:12.682Z,7.87
2023-04-28T10:27:06.602Z,8.00
2023-04-28T10:29:36.052Z,8.27
2023-04-28T10:32:21.075Z,7.80
2023-04-28T10:34:49.285Z,6.63
2023-04-28T10:37:18.919Z,7.57
2023-04-28T10:40:25.017Z,7.30
2023-04-28T10:42:53.919Z,7.50
2023-04-28T10:46:00.841Z,7.17
2023-04-28T10:48:55.530Z,6.83
2023-04-28T10:51:30.185Z,8.37
2023-04-28T10:54:11.785Z,7.40
2023-04-28T10:56:41.396Z,8.03
2023-04-28T10:59:28.161Z,8.43
2023-04-28T11:01:56.031Z,8.30
2023-04-28T11:04:25.552Z,9.20
2023-04-28T11:07:11.350Z,9.43
2023-04-28T11:09:49.840Z,9.30
2023-04-28T11:12:19.155Z,9.60
2023-04-28T11:14:47.042Z,9.90
2023-04-28T11:17:17.179Z,9.47
2023-04-28T11:19:48.521Z,8.50
2023-04-28T11:22:17.928Z,9.40
2023-04-28T11:24:57.665Z,9.63
2023-04-28T11:27:25.967Z,10.30
2023-04-28T11:29:54.146Z,9.73
2023-04-28T11:32:28.471Z,9.83
2023-04-28T11:34:57.643Z,8.83
2023-04-28T11:37:25.454Z,10.20
2023-04-28T11:39:53.945Z,10.37
2023-04-28T11:42:21.654Z,10.00
2023-04-28T11:44:53.337Z,9.87
2023-04-28T11:47:31.625Z,9.80
2023-04-28T11:50:01.406Z,11.03
2023-04-28T11:52:29.319Z,10.90
2023-04-28T11:54:57.606Z,11.03
2023-04-28T11:57:25.458Z,10.87
2023-04-28T11:59:53.385Z,10.80
2023-04-28T12:02:28.107Z,10.83
2023-04-28T12:04:56.578Z,11.33
2023-04-28T12:07:25.674Z,10.63
2023-04-28T12:10:11.814Z,11.47
2023-04-28T12:12:50.043Z,12.17
2023-04-28T12:15:20.981Z,12.93
2023-04-28T12:17:50.749Z,12.63
2023-04-28T12:20:36.736Z,13.83
2023-04-28T12:23:06.124Z,13.47
2023-04-28T12:25:35.249Z,14.53
2023-04-28T12:28:04.015Z,13.37
2023-04-28T12:30:33.453Z,13.77
2023-04-28T12:33:01.298Z,13.80
2023-04-28T12:35:30.219Z,15.27
2023-04-28T12:37:58.999Z,15.33
2023-04-28T12:40:28.240Z,14.43
2023-04-28T12:42:56.991Z,14.20
2023-04-28T12:45:24.712Z,16.07
2023-04-28T12:47:52.424Z,17.00
2023-04-28T12:50:20.340Z,16.00
2023-04-28T12:52:48.158Z,17.87
2023-04-28T12:55:16.485Z,19.93
2023-04-28T12:57:45.566Z,19.70
2023-04-28T13:00:16.358Z,21.20
2023-04-28T13:02:45.415Z,21.80
2023-04-28T13:05:14.393Z,22.10
2023-04-28T13:07:42.419Z,23.13
2023-04-28T13:10:10.967Z,26.10
2023-04-28T13:12:38.777Z,25.77
2023-04-28T13:15:09.135Z,29.93
2023-04-28T13:17:36.941Z,27.93
2023-04-28T13:20:06.653Z,29.17
2023-04-28T13:22:34.492Z,30.93
2023-04-28T13:25:02.345Z,31.00
2023-04-28T13:27:30.739Z,32.23
2023-04-28T13:29:59.192Z,34.00
2023-04-28T13:32:28.470Z,34.43
2023-04-28T13:34:56.376Z,34.73
2023-04-28T13:37:24.129Z,33.57
2023-04-28T13:39:52.223Z,34.70
2023-04-28T13:42:20.033Z,34.30
2023-04-28T13:44:49.230Z,34.00
2023-04-28T13:47:17.105Z,34.47
2023-04-28T13:49:46.183Z,33.30
2023-04-28T13:52:14.181Z,33.23
2023-04-28T13:54:42.922Z,31.77
2023-04-28T13:57:13.568Z,31.40
2023-04-28T13:59:41.825Z,30.63
2023-04-28T14:02:11.705Z,30.40
2023-04-28T14:04:39.781Z,30.53
2023-04-28T14:07:09.794Z,29.77
2023-04-28T14:09:37.565Z,29.77
2023-04-28T14:12:06.233Z,28.73
2023-04-28T14:14:33.920Z,29.57
2023-04-28T14:17:01.839Z,29.67
2023-04-28T14:19:29.659Z,30.27
2023-04-28T14:21:57.670Z,28.30
2023-04-28T14:24:27.366Z,30.90
2023-04-28T14:26:55.202Z,32.00
2023-04-28T14:29:42.359Z,31.20
2023-04-28T14:32:10.163Z,31.13
2023-04-28T14:34:37.894Z,31.43
2023-04-28T14:37:05.675Z,30.50
2023-04-28T14:39:33.487Z,27.43
2023-04-28T14:42:01.868Z,27.30
2023-04-28T14:44:29.564Z,28.20
2023-04-28T14:46:58.950Z,27.00
2023-04-28T14:49:27.557Z,26.53
2023-04-28T14:51:55.377Z,24.10
2023-04-28T14:54:23.174Z,24.23
2023-04-28T14:56:51.190Z,23.60
2023-04-28T14:59:19.418Z,20.40
2023-04-28T15:01:47.318Z,19.10
2023-04-28T15:04:16.681Z,17.90
2023-04-28T15:06:44.689Z,17.37
2023-04-28T15:09:12.715Z,19.17
2023-04-28T15:11:40.400Z,18.07
2023-04-28T15:14:08.127Z,17.83
2023-04-28T15:16:35.856Z,18.83
2023-04-28T15:19:03.836Z,18.50
2023-04-28T15:21:33.109Z,17.67
2023-04-28T15:24:00.944Z,16.70
2023-04-28T15:26:30.080Z,16.53
2023-04-28T15:28:58.044Z,14.80
2023-04-28T15:31:25.852Z,14.77
2023-04-28T15:33:53.620Z,14.33
2023-04-28T15:36:21.603Z,12.60
2023-04-28T15:38:51.865Z,12.97
2023-04-28T15:41:19.657Z,12.83
2023-04-28T15:43:49.933Z,12.97
2023-04-28T15:46:18.076Z,12.97
2023-04-28T15:48:45.951Z,11.80
2023-04-28T15:51:13.736Z,12.47
2023-04-28T15:53:41.730Z,12.80
2023-04-28T15:56:11.508Z,12.30
2023-04-28T15:58:39.256Z,12.90
2023-04-28T16:01:06.982Z,12.90
2023-04-28T16:03:35.048Z,13.93
2023-04-28T16:06:03.622Z,16.23
2023-04-28T16:08:31.433Z,18.97
2023-04-28T16:10:59.224Z,12.10
2023-04-28T16:13:31.212Z,12.97
2023-04-28T16:15:58.909Z,12.70
2023-04-28T16:18:26.720Z,11.77
2023-04-28T16:20:54.794Z,12.00
2023-04-28T16:23:22.826Z,10.77
2023-04-28T16:25:50.951Z,11.77
2023-04-28T16:28:18.720Z,11.30
2023-04-28T16:30:49.468Z,11.30
2023-04-28T16:33:17.535Z,11.80
2023-04-28T16:35:45.544Z,12.37
2023-04-28T16:38:13.529Z,11.20
2023-04-28T16:40:41.258Z,11.10
2023-04-28T16:43:09.067Z,11.63
2023-04-28T16:45:36.907Z,10.80
2023-04-28T16:48:06.329Z,11.93
2023-04-28T16:50:34.343Z,11.97
2023-04-28T16:53:02.126Z,12.00
2023-04-28T16:55:30.312Z,13.17
2023-04-28T16:57:58.006Z,12.33
2023-04-28T17:00:25.927Z,13.70
2023-04-28T17:02:53.750Z,13.63
2023-04-28T17:05:22.966Z,13.87
2023-04-28T17:07:50.740Z,14.17
2023-04-28T17:10:18.626Z,15.53
2023-04-28T17:12:46.443Z,17.77
2023-04-28T17:15:17.170Z,19.17
2023-04-28T17:17:45.420Z,19.23
2023-04-28T17:20:16.731Z,19.07
2023-04-28T17:22:45.905Z,19.57
2023-04-28T17:25:14.090Z,21.53
2023-04-28T17:27:41.858Z,20.87
2023-04-28T17:30:11.432Z,20.57
2023-04-28T17:32:39.583Z,21.10
2023-04-28T17:35:08.482Z,20.77
2023-04-28T17:37:37.154Z,22.07
2023-04-28T17:40:07.304Z,22.57
2023-04-28T17:42:35.056Z,23.87
2023-04-28T17:45:02.785Z,23.63
2023-04-28T17:47:30.601Z,24.13
2023-04-28T17:49:58.474Z,23.00
2023-04-28T17:52:26.276Z,24.67
2023-04-28T17:54:53.934Z,22.77
2023-04-28T17:57:23.046Z,21.90
2023-04-28T17:59:51.047Z,25.13
2023-04-28T18:02:19.752Z,25.77
2023-04-28T18:04:47.660Z,24.33
2023-04-28T18:07:15.453Z,23.60
2023-04-28T18:09:43.379Z,26.03
2023-04-28T18:12:11.192Z,23.40
2023-04-28T18:14:41.171Z,23.90
2023-04-28T18:17:08.888Z,24.57
2023-04-28T18:19:36.994Z,24.47
2023-04-28T18:22:04.834Z,26.27
2023-04-28T18:24:32.535Z,26.47
2023-04-28T18:27:00.254Z,26.57
2023-04-28T18:29:28.017Z,24.70
2023-04-28T18:31:57.234Z,26.73
2023-04-28T18:34:25.235Z,26.50
2023-04-28T18:36:52.944Z,26.73
2023-04-28T18:39:20.653Z,29.20
2023-04-28T18:41:48.400Z,26.50
2023-04-28T18:44:16.085Z,27.27
2023-04-28T18:46:43.816Z,28.70
2023-04-28T18:49:12.983Z,27.97
2023-04-28T18:51:40.784Z,29.27
2023-04-28T18:54:08.616Z,30.03
2023-04-28T18:56:36.948Z,29.50
2023-04-28T18:59:05.838Z,29.37
2023-04-28T19:01:33.653Z,28.23
2023-04-28T19:04:01.654Z,27.63
2023-04-28T19:06:31.070Z,28.80
2023-04-28T19:08:58.772Z,26.83
2023-04-28T19:11:26.712Z,28.13
2023-04-28T19:13:55.608Z,27.57
2023-04-28T19:16:23.343Z,27.30
2023-04-28T19:18:51.104Z,26.43
2023-04-28T19:21:18.870Z,26.87
2023-04-28T19:23:48.345Z,27.87
2023-04-28T19:26:16.577Z,26.00
2023-04-28T19:28:44.403Z,26.67
2023-04-28T19:31:12.181Z,27.30
2023-04-28T19:33:39.951Z,25.93
2023-04-28T19:36:09.705Z,26.87
2023-04-28T19:38:39.327Z,29.57
2023-04-28T19:41:08.398Z,28.43
2023-04-28T19:43:36.671Z,27.77
2023-04-28T19:46:04.450Z,27.83
2023-04-28T19:48:32.233Z,27.73
2023-04-28T19:51:00.349Z,27.53
2023-04-28T19:53:28.580Z,27.50
2023-04-28T19:55:57.386Z,27.63
2023-04-28T19:58:26.577Z,28.43
2023-04-28T20:00:54.623Z,28.10
2023-04-28T20:03:22.594Z,29.17
2023-04-28T20:05:50.422Z,29.50
2023-04-28T20:08:19.550Z,29.90
2023-04-28T20:10:47.899Z,29.17
2023-04-28T20:13:16.203Z,29.73
2023-04-28T20:15:45.267Z,30.97
2023-04-28T20:18:13.136Z,32.90
2023-04-28T20:20:40.888Z,31.70
2023-04-28T20:23:08.620Z,30.73
2023-04-28T20:25:37.872Z,33.03
2023-04-28T20:28:05.914Z,32.90
2023-04-28T20:30:33.653Z,33.23
2023-04-28T20:33:02.710Z,31.73
2023-04-28T20:35:30.452Z,34.03
2023-04-28T20:37:58.833Z,34.53
2023-04-28T20:40:26.839Z,35.60
2023-04-28T20:42:54.676Z,38.37
2023-04-28T20:45:23.279Z,36.30
2023-04-28T20:47:51.032Z,38.60
2023-04-28T20:50:20.128Z,39.20
2023-04-28T20:52:47.849Z,39.93
2023-04-28T20:55:15.664Z,42.50
2023-04-28T20:57:43.412Z,41.20
2023-04-28T21:00:12.914Z,42.33
2023-04-28T21:02:40.951Z,44.63
2023-04-28T21:05:09.876Z,46.60
2023-04-28T21:07:38.949Z,44.40
2023-04-28T21:10:08.279Z,45.47
2023-04-28T21:12:36.059Z,47.90
2023-04-28T21:15:03.859Z,45.40
2023-04-28T21:17:31.685Z,47.90
2023-04-28T21:19:59.519Z,46.23
2023-04-28T21:22:28.784Z,46.30
2023-04-28T21:24:58.047Z,44.73
2023-04-28T21:27:25.831Z,46.83
2023-04-28T21:29:53.819Z,45.87
2023-04-28T21:32:21.785Z,45.37
2023-04-28T21:34:49.784Z,45.10
2023-04-28T21:37:17.646Z,45.70
2023-04-28T21:39:45.712Z,46.50
2023-04-28T21:42:15.431Z,44.83
2023-04-28T21:44:43.191Z,40.10
2023-04-28T21:47:10.934Z,39.17
2023-04-28T21:49:38.650Z,40.57
2023-04-28T21:52:06.484Z,38.60
2023-04-28T21:54:34.261Z,38.93
2023-04-28T21:57:01.970Z,39.00
2023-04-28T21:59:31.174Z,38.67
2023-04-28T22:01:59.514Z,38.70
2023-04-28T22:04:27.508Z,39.47
2023-04-28T22:06:55.564Z,39.50
2023-04-28T22:09:23.433Z,37.87
2023-04-28T22:11:52.297Z,40.03
2023-04-28T22:14:35.566Z,38.90
2023-04-28T22:17:08.295Z,38.23
2023-04-28T22:19:35.991Z,39.93
2023-04-28T22:22:03.757Z,38.80
2023-04-28T22:24:31.734Z,40.13
2023-04-28T22:26:59.448Z,41.40
2023-04-28T22:29:27.196Z,41.93
2023-04-28T22:31:54.938Z,42.07
2023-04-28T22:34:24.066Z,38.93
2023-04-28T22:36:51.784Z,42.53
2023-04-28T22:39:19.853Z,42.70
2023-04-28T22:41:47.722Z,41.70
2023-04-28T22:44:15.475Z,42.43
2023-04-28T22:46:43.198Z,42.30
2023-04-28T22:49:10.996Z,41.57
2023-04-28T22:51:40.045Z,43.63
2023-04-28T22:54:08.472Z,43.43
2023-04-28T22:56:36.317Z,41.70
2023-04-28T22:59:04.733Z,45.73
2023-04-28T23:01:32.591Z,43.73
2023-04-28T23:05:28.098Z,43.97
2023-04-28T23:07:56.069Z,44.97
2023-04-28T23:10:23.732Z,45.73
2023-04-28T23:12:51.423Z,49.40
2023-04-28T23:15:19.224Z,45.10
2023-04-28T23:17:47.009Z,48.73
2023-04-28T23:20:15.101Z,47.77
2023-04-28T23:22:44.173Z,52.87
2023-04-28T23:25:11.874Z,48.93
2023-04-28T23:27:39.541Z,48.03
2023-04-28T23:30:08.718Z,49.37
2023-04-28T23:32:36.467Z,51.57
2023-04-28T23:35:04.445Z,51.13
2023-04-28T23:37:32.205Z,49.30
2023-04-28T23:40:01.600Z,48.63
2023-04-28T23:42:29.353Z,46.00
2023-04-28T23:44:57.905Z,50.67
2023-04-28T23:47:25.688Z,48.43
2023-04-28T23:49:53.623Z,48.23
2023-04-28T23:52:21.308Z,47.37
2023-04-28T23:54:49.256Z,47.40
2023-04-28T23:57:19.045Z,44.73
2023-04-28T23:59:46.797Z,44.97
